EZS83LF LSGG-UGTB
Flight info
| Callsign | EZS83LF |
|---|---|
| Flight time | 4h 20m |
| Altitude | 34000 |
| Route | MEDAM DCT NITAM DCT MOGBO DCT KODOK DCT TOP DCT LABIN DCT ULPIN DCT ELTIB DCT MITNO DCT TORTO DCT RAMAP DCT GINAM DCT AZBUX DCT NISVA DCT RIXEN UA17 YAVRU UA4 BUK UW71 TBN UN61 NOLGA N61 LAGAS |
| Aircraft | A320/M-SDE2E3FGHIJ1RWXYZ/LB1 |
Departure
| Time | 2026-04-25 11:05 |
|---|---|
| Airport | Geneva International Airport (LSGG) |
Arrival
| Time | 2026-04-25 15:26 |
|---|---|
| Airport | Tbilisi International Airport (UGTB) |
| Time | Latitude | Longitude | Altitude | Speed | Heading |
|---|---|---|---|---|---|
| 2026-04-25 10:44 | 46.23341 | 6.10671 | 1403 ft | 0 kts | 270° |
| 2026-04-25 10:54 | 46.23340 | 6.10689 | 1397 ft | 3 kts | 270° |
| 2026-04-25 10:54 | 46.23340 | 6.10714 | 1404 ft | 2 kts | 270° |
| 2026-04-25 10:55 | 46.23340 | 6.10739 | 1401 ft | 2 kts | 270° |
| 2026-04-25 10:55 | 46.23340 | 6.10764 | 1401 ft | 2 kts | 279° |
| 2026-04-25 10:55 | 46.23336 | 6.10787 | 1401 ft | 2 kts | 316° |
| 2026-04-25 10:55 | 46.23321 | 6.10799 | 1402 ft | 2 kts | 2° |
| 2026-04-25 10:56 | 46.23315 | 6.10799 | 1401 ft | 0 kts | 27° |
| 2026-04-25 10:58 | 46.23336 | 6.10802 | 1399 ft | 5 kts | 356° |
| 2026-04-25 10:58 | 46.23380 | 6.10748 | 1400 ft | 12 kts | 308° |
| 2026-04-25 10:58 | 46.23444 | 6.10701 | 1388 ft | 14 kts | 25° |
| 2026-04-25 10:58 | 46.23516 | 6.10805 | 1391 ft | 15 kts | 46° |
| 2026-04-25 10:59 | 46.23594 | 6.10918 | 1389 ft | 14 kts | 45° |
| 2026-04-25 10:59 | 46.23666 | 6.11024 | 1388 ft | 16 kts | 46° |
| 2026-04-25 10:59 | 46.23753 | 6.11152 | 1381 ft | 21 kts | 45° |
| 2026-04-25 10:59 | 46.23864 | 6.11314 | 1373 ft | 23 kts | 45° |
| 2026-04-25 11:00 | 46.23984 | 6.11491 | 1372 ft | 26 kts | 45° |
| 2026-04-25 11:00 | 46.24114 | 6.11681 | 1367 ft | 28 kts | 45° |
| 2026-04-25 11:00 | 46.24253 | 6.11885 | 1362 ft | 29 kts | 45° |
| 2026-04-25 11:00 | 46.24378 | 6.12069 | 1367 ft | 24 kts | 45° |
| 2026-04-25 11:01 | 46.24487 | 6.12229 | 1372 ft | 21 kts | 45° |
| 2026-04-25 11:01 | 46.24590 | 6.12381 | 1370 ft | 22 kts | 45° |
| 2026-04-25 11:01 | 46.24705 | 6.12549 | 1363 ft | 26 kts | 45° |
| 2026-04-25 11:01 | 46.24816 | 6.12676 | 1362 ft | 17 kts | 17° |
| 2026-04-25 11:02 | 46.24839 | 6.12686 | 1363 ft | 0 kts | 16° |
| 2026-04-25 11:03 | 46.24844 | 6.12688 | 1363 ft | 5 kts | 16° |
| 2026-04-25 11:03 | 46.24905 | 6.12715 | 1366 ft | 20 kts | 18° |
| 2026-04-25 11:04 | 46.24986 | 6.12702 | 1370 ft | 8 kts | 307° |
| 2026-04-25 11:04 | 46.24982 | 6.12623 | 1369 ft | 16 kts | 234° |
| 2026-04-25 11:04 | 46.24955 | 6.12584 | 1371 ft | 11 kts | 225° |
| 2026-04-25 11:04 | 46.24718 | 6.12244 | 1371 ft | 83 kts | 225° |
| 2026-04-25 11:05 | 46.24182 | 6.11448 | 1373 ft | 138 kts | 225° |
| 2026-04-25 11:05 | 46.23398 | 6.10309 | 1454 ft | 175 kts | 224° |
| 2026-04-25 11:05 | 46.22564 | 6.09103 | 2280 ft | 161 kts | 224° |
| 2026-04-25 11:05 | 46.21766 | 6.07978 | 2925 ft | 162 kts | 225° |
| 2026-04-25 11:06 | 46.20925 | 6.06769 | 3288 ft | 178 kts | 225° |
| 2026-04-25 11:06 | 46.20006 | 6.05435 | 3623 ft | 195 kts | 226° |
| 2026-04-25 11:06 | 46.19010 | 6.03995 | 3929 ft | 212 kts | 226° |
| 2026-04-25 11:06 | 46.17915 | 6.02399 | 4223 ft | 234 kts | 226° |
| 2026-04-25 11:07 | 46.16715 | 6.00656 | 4589 ft | 255 kts | 225° |
| 2026-04-25 11:07 | 46.15433 | 5.98808 | 5049 ft | 272 kts | 226° |
| 2026-04-25 11:07 | 46.14133 | 5.96848 | 6002 ft | 268 kts | 228° |
| 2026-04-25 11:07 | 46.12829 | 5.94896 | 6840 ft | 268 kts | 225° |
| 2026-04-25 11:08 | 46.11252 | 5.93387 | 7465 ft | 280 kts | 202° |
| 2026-04-25 11:08 | 46.09332 | 5.92722 | 8142 ft | 287 kts | 185° |
| 2026-04-25 11:08 | 46.07379 | 5.93081 | 8848 ft | 291 kts | 157° |
| 2026-04-25 11:08 | 46.05759 | 5.94799 | 9539 ft | 293 kts | 126° |
| 2026-04-25 11:09 | 46.04889 | 5.97433 | 10219 ft | 294 kts | 100° |
| 2026-04-25 11:09 | 46.04711 | 6.00421 | 10605 ft | 310 kts | 92° |
| 2026-04-25 11:09 | 46.04610 | 6.03637 | 10759 ft | 332 kts | 91° |
| 2026-04-25 11:09 | 46.04477 | 6.07017 | 11213 ft | 342 kts | 96° |
| 2026-04-25 11:10 | 46.03909 | 6.10368 | 11835 ft | 347 kts | 110° |
| 2026-04-25 11:10 | 46.03224 | 6.12461 | 12253 ft | 351 kts | 119° |
| 2026-04-25 11:10 | 46.01149 | 6.16131 | 13062 ft | 359 kts | 138° |
| 2026-04-25 11:10 | 45.99145 | 6.18316 | 13654 ft | 364 kts | 144° |
| 2026-04-25 11:11 | 45.97079 | 6.20487 | 14182 ft | 370 kts | 143° |
| 2026-04-25 11:11 | 45.94991 | 6.22690 | 14692 ft | 374 kts | 143° |
| 2026-04-25 11:11 | 45.92878 | 6.24925 | 15186 ft | 379 kts | 143° |
| 2026-04-25 11:11 | 45.90763 | 6.27158 | 15689 ft | 384 kts | 142° |
| 2026-04-25 11:12 | 45.88588 | 6.29447 | 16186 ft | 389 kts | 143° |
| 2026-04-25 11:12 | 45.86396 | 6.31760 | 16707 ft | 392 kts | 144° |
| 2026-04-25 11:12 | 45.84192 | 6.34097 | 17238 ft | 396 kts | 143° |
| 2026-04-25 11:12 | 45.81965 | 6.36471 | 17765 ft | 400 kts | 143° |
| 2026-04-25 11:13 | 45.79743 | 6.38841 | 18217 ft | 405 kts | 143° |
| 2026-04-25 11:13 | 45.77471 | 6.41260 | 18643 ft | 409 kts | 144° |
| 2026-04-25 11:13 | 45.75171 | 6.43699 | 19046 ft | 412 kts | 144° |
| 2026-04-25 11:13 | 45.72852 | 6.46155 | 19497 ft | 415 kts | 144° |
| 2026-04-25 11:14 | 45.70511 | 6.48628 | 19907 ft | 418 kts | 144° |
| 2026-04-25 11:14 | 45.68154 | 6.51118 | 20357 ft | 421 kts | 144° |
| 2026-04-25 11:14 | 45.65820 | 6.53580 | 20758 ft | 424 kts | 144° |
| 2026-04-25 11:14 | 45.63435 | 6.56090 | 21193 ft | 426 kts | 144° |
| 2026-04-25 11:15 | 45.61040 | 6.58606 | 21615 ft | 429 kts | 144° |
| 2026-04-25 11:15 | 45.58625 | 6.61143 | 22040 ft | 432 kts | 144° |
| 2026-04-25 11:15 | 45.56198 | 6.63694 | 22458 ft | 433 kts | 144° |
| 2026-04-25 11:15 | 45.53753 | 6.66261 | 22889 ft | 436 kts | 145° |
| 2026-04-25 11:16 | 45.48827 | 6.71425 | 23704 ft | 441 kts | 145° |
| 2026-04-25 11:16 | 45.46376 | 6.73995 | 24033 ft | 444 kts | 146° |
| 2026-04-25 11:16 | 45.43868 | 6.76600 | 24395 ft | 446 kts | 146° |
| 2026-04-25 11:17 | 45.41332 | 6.79176 | 24724 ft | 447 kts | 146° |
| 2026-04-25 11:17 | 45.38774 | 6.81733 | 25080 ft | 449 kts | 147° |
| 2026-04-25 11:17 | 45.36210 | 6.84275 | 25386 ft | 450 kts | 147° |
| 2026-04-25 11:17 | 45.33640 | 6.86817 | 25766 ft | 450 kts | 147° |
| 2026-04-25 11:18 | 45.31101 | 6.89331 | 26103 ft | 451 kts | 147° |
| 2026-04-25 11:18 | 45.28518 | 6.91900 | 26414 ft | 452 kts | 146° |
| 2026-04-25 11:18 | 45.26004 | 6.94619 | 26741 ft | 455 kts | 139° |
| 2026-04-25 11:18 | 45.23718 | 6.97748 | 27048 ft | 457 kts | 137° |
| 2026-04-25 11:19 | 45.21436 | 7.00919 | 27362 ft | 458 kts | 137° |
| 2026-04-25 11:19 | 45.19173 | 7.04039 | 27681 ft | 460 kts | 137° |
| 2026-04-25 11:19 | 45.16871 | 7.07194 | 28001 ft | 461 kts | 137° |
| 2026-04-25 11:19 | 45.14558 | 7.10360 | 28325 ft | 461 kts | 137° |
| 2026-04-25 11:20 | 45.12249 | 7.13522 | 28656 ft | 462 kts | 137° |
| 2026-04-25 11:20 | 45.10079 | 7.16897 | 28949 ft | 465 kts | 128° |
| 2026-04-25 11:20 | 45.08199 | 7.20636 | 29205 ft | 467 kts | 126° |
| 2026-04-25 11:20 | 45.06339 | 7.24408 | 29481 ft | 468 kts | 126° |
| 2026-04-25 11:21 | 45.04469 | 7.28176 | 29749 ft | 469 kts | 126° |
| 2026-04-25 11:21 | 45.02589 | 7.31951 | 29993 ft | 470 kts | 126° |
| 2026-04-25 11:21 | 45.00702 | 7.35737 | 30217 ft | 472 kts | 125° |
| 2026-04-25 11:21 | 44.99028 | 7.39732 | 30371 ft | 474 kts | 116° |
| 2026-04-25 11:22 | 44.97808 | 7.43996 | 30635 ft | 473 kts | 107° |
| 2026-04-25 11:22 | 44.97236 | 7.47031 | 30842 ft | 473 kts | 102° |
| 2026-04-25 11:22 | 44.96348 | 7.53044 | 31226 ft | 471 kts | 102° |
| 2026-04-25 11:22 | 44.95673 | 7.57578 | 31518 ft | 471 kts | 102° |
| 2026-04-25 11:23 | 44.94996 | 7.62085 | 31812 ft | 470 kts | 102° |
| 2026-04-25 11:23 | 44.94316 | 7.66603 | 32109 ft | 469 kts | 102° |
| 2026-04-25 11:23 | 44.93733 | 7.71128 | 32393 ft | 468 kts | 99° |
| 2026-04-25 11:23 | 44.93275 | 7.75695 | 32679 ft | 467 kts | 97° |
| 2026-04-25 11:24 | 44.92909 | 7.80190 | 32962 ft | 467 kts | 96° |
| 2026-04-25 11:24 | 44.92593 | 7.84768 | 33246 ft | 466 kts | 93° |
| 2026-04-25 11:24 | 44.92639 | 7.89350 | 33529 ft | 465 kts | 86° |
| 2026-04-25 11:24 | 44.92856 | 7.93907 | 33797 ft | 465 kts | 86° |
| 2026-04-25 11:25 | 44.93030 | 7.98464 | 34017 ft | 465 kts | 87° |
| 2026-04-25 11:25 | 44.93173 | 8.03008 | 34071 ft | 461 kts | 88° |
| 2026-04-25 11:25 | 44.93419 | 8.11975 | 34064 ft | 459 kts | 88° |
| 2026-04-25 11:26 | 44.93675 | 8.20977 | 34064 ft | 458 kts | 88° |
| 2026-04-25 11:26 | 44.93955 | 8.29978 | 34067 ft | 458 kts | 88° |
| 2026-04-25 11:27 | 44.94238 | 8.38970 | 34067 ft | 458 kts | 88° |
| 2026-04-25 11:27 | 44.94465 | 8.46457 | 34073 ft | 458 kts | 88° |
| 2026-04-25 11:28 | 44.94761 | 8.56913 | 34076 ft | 458 kts | 88° |
| 2026-04-25 11:28 | 44.95008 | 8.65893 | 34076 ft | 458 kts | 88° |
| 2026-04-25 11:29 | 44.95255 | 8.74882 | 34075 ft | 458 kts | 88° |
| 2026-04-25 11:29 | 44.95489 | 8.83814 | 34078 ft | 457 kts | 88° |
| 2026-04-25 11:30 | 44.95715 | 8.92794 | 34073 ft | 457 kts | 88° |
| 2026-04-25 11:30 | 44.95939 | 9.01773 | 34073 ft | 457 kts | 88° |
| 2026-04-25 11:31 | 44.96155 | 9.10737 | 34067 ft | 457 kts | 88° |
| 2026-04-25 11:31 | 44.96361 | 9.19725 | 34063 ft | 457 kts | 88° |
| 2026-04-25 11:32 | 44.96563 | 9.28634 | 34065 ft | 457 kts | 89° |
| 2026-04-25 11:32 | 44.96757 | 9.37611 | 34061 ft | 456 kts | 89° |
| 2026-04-25 11:33 | 44.96939 | 9.46588 | 34052 ft | 456 kts | 89° |
| 2026-04-25 11:33 | 44.97117 | 9.55518 | 34049 ft | 457 kts | 89° |
| 2026-04-25 11:34 | 44.97288 | 9.64497 | 34052 ft | 456 kts | 89° |
| 2026-04-25 11:34 | 44.97454 | 9.73468 | 34056 ft | 456 kts | 89° |
| 2026-04-25 11:35 | 44.97612 | 9.82405 | 34049 ft | 457 kts | 89° |
| 2026-04-25 11:35 | 44.97763 | 9.91405 | 34051 ft | 457 kts | 89° |
| 2026-04-25 11:36 | 44.97907 | 10.00400 | 34064 ft | 457 kts | 89° |
| 2026-04-25 11:36 | 44.98042 | 10.09348 | 34083 ft | 457 kts | 89° |
| 2026-04-25 11:37 | 44.98174 | 10.18336 | 34088 ft | 457 kts | 89° |
| 2026-04-25 11:37 | 44.98301 | 10.27319 | 34095 ft | 457 kts | 90° |
| 2026-04-25 11:38 | 44.98412 | 10.36320 | 34114 ft | 457 kts | 90° |
| 2026-04-25 11:38 | 44.98520 | 10.45317 | 34110 ft | 457 kts | 90° |
| 2026-04-25 11:39 | 44.98628 | 10.54248 | 34109 ft | 457 kts | 90° |
| 2026-04-25 11:39 | 44.98721 | 10.63243 | 34117 ft | 457 kts | 90° |
| 2026-04-25 11:40 | 44.98808 | 10.72241 | 34116 ft | 457 kts | 90° |
| 2026-04-25 11:40 | 44.98893 | 10.81163 | 34127 ft | 456 kts | 90° |
| 2026-04-25 11:41 | 44.98967 | 10.90125 | 34124 ft | 456 kts | 90° |
| 2026-04-25 11:41 | 44.99031 | 10.99080 | 34132 ft | 455 kts | 90° |
| 2026-04-25 11:42 | 44.99086 | 11.07978 | 34139 ft | 455 kts | 90° |
| 2026-04-25 11:42 | 44.99144 | 11.16931 | 34135 ft | 455 kts | 90° |
| 2026-04-25 11:43 | 44.99187 | 11.25876 | 34136 ft | 455 kts | 90° |
| 2026-04-25 11:43 | 44.99222 | 11.34825 | 34130 ft | 454 kts | 90° |
| 2026-04-25 11:44 | 44.99255 | 11.43754 | 34126 ft | 454 kts | 90° |
| 2026-04-25 11:44 | 44.99287 | 11.52631 | 34127 ft | 454 kts | 90° |
| 2026-04-25 11:45 | 44.99302 | 11.60116 | 34124 ft | 455 kts | 90° |
| 2026-04-25 11:45 | 44.99306 | 11.70497 | 34106 ft | 455 kts | 90° |
| 2026-04-25 11:46 | 44.99311 | 11.78000 | 34105 ft | 455 kts | 90° |
| 2026-04-25 11:46 | 44.99321 | 11.86899 | 34093 ft | 456 kts | 90° |
| 2026-04-25 11:47 | 44.99310 | 11.95876 | 34091 ft | 456 kts | 91° |
| 2026-04-25 11:47 | 44.99285 | 12.04828 | 34085 ft | 455 kts | 91° |
| 2026-04-25 11:48 | 44.99258 | 12.13785 | 34089 ft | 455 kts | 91° |
| 2026-04-25 11:48 | 44.99235 | 12.22689 | 34078 ft | 455 kts | 91° |
| 2026-04-25 11:49 | 44.99207 | 12.31648 | 34083 ft | 455 kts | 91° |
| 2026-04-25 11:49 | 44.99163 | 12.40599 | 34078 ft | 455 kts | 91° |
| 2026-04-25 11:50 | 44.99105 | 12.49553 | 34074 ft | 455 kts | 91° |
| 2026-04-25 11:50 | 44.99046 | 12.58506 | 34074 ft | 455 kts | 91° |
| 2026-04-25 11:51 | 44.98985 | 12.67406 | 34078 ft | 455 kts | 91° |
| 2026-04-25 11:51 | 44.98913 | 12.76337 | 34079 ft | 455 kts | 91° |
| 2026-04-25 11:52 | 44.98834 | 12.85294 | 34082 ft | 454 kts | 91° |
| 2026-04-25 11:52 | 44.98746 | 12.94228 | 34078 ft | 454 kts | 91° |
| 2026-04-25 11:53 | 44.98655 | 13.03110 | 34077 ft | 454 kts | 91° |
| 2026-04-25 11:53 | 44.98100 | 13.11961 | 34070 ft | 452 kts | 105° |
| 2026-04-25 11:54 | 44.96587 | 13.20569 | 34065 ft | 451 kts | 105° |
| 2026-04-25 11:55 | 44.94347 | 13.33445 | 34062 ft | 451 kts | 105° |
| 2026-04-25 11:55 | 44.92845 | 13.42028 | 34074 ft | 445 kts | 105° |
| 2026-04-25 11:56 | 44.91345 | 13.50523 | 34077 ft | 451 kts | 105° |
| 2026-04-25 11:56 | 44.89810 | 13.59135 | 34079 ft | 452 kts | 105° |
| 2026-04-25 11:57 | 44.88280 | 13.67746 | 34080 ft | 452 kts | 105° |
| 2026-04-25 11:57 | 44.86754 | 13.76298 | 34090 ft | 452 kts | 105° |
| 2026-04-25 11:58 | 44.85204 | 13.84887 | 34091 ft | 452 kts | 105° |
| 2026-04-25 11:58 | 44.83643 | 13.93462 | 34089 ft | 452 kts | 105° |
| 2026-04-25 11:59 | 44.82080 | 14.02054 | 34086 ft | 452 kts | 105° |
| 2026-04-25 11:59 | 44.80528 | 14.10570 | 34079 ft | 451 kts | 105° |
| 2026-04-25 12:00 | 44.78171 | 14.23428 | 34076 ft | 451 kts | 105° |
| 2026-04-25 12:01 | 44.75813 | 14.36205 | 34082 ft | 451 kts | 105° |
| 2026-04-25 12:01 | 44.74221 | 14.44754 | 34080 ft | 450 kts | 105° |
| 2026-04-25 12:02 | 44.71845 | 14.57497 | 34078 ft | 451 kts | 105° |
| 2026-04-25 12:02 | 44.70242 | 14.66029 | 34075 ft | 451 kts | 105° |
| 2026-04-25 12:03 | 44.68703 | 14.74583 | 34074 ft | 451 kts | 104° |
| 2026-04-25 12:03 | 44.67223 | 14.83160 | 34067 ft | 450 kts | 104° |
| 2026-04-25 12:04 | 44.65749 | 14.91679 | 34062 ft | 451 kts | 104° |
| 2026-04-25 12:04 | 44.64235 | 15.00223 | 34062 ft | 451 kts | 105° |
| 2026-04-25 12:05 | 44.62707 | 15.08769 | 34062 ft | 451 kts | 105° |
| 2026-04-25 12:05 | 44.61168 | 15.17318 | 34062 ft | 451 kts | 105° |
| 2026-04-25 12:06 | 44.59646 | 15.25814 | 34055 ft | 451 kts | 105° |
| 2026-04-25 12:06 | 44.58107 | 15.34341 | 34053 ft | 451 kts | 105° |
| 2026-04-25 12:07 | 44.56558 | 15.42875 | 34050 ft | 451 kts | 105° |
| 2026-04-25 12:07 | 44.55002 | 15.51403 | 34049 ft | 451 kts | 105° |
| 2026-04-25 12:08 | 44.53437 | 15.59955 | 34050 ft | 451 kts | 105° |
| 2026-04-25 12:08 | 44.51875 | 15.68422 | 34052 ft | 451 kts | 105° |
| 2026-04-25 12:09 | 44.50301 | 15.76941 | 34048 ft | 451 kts | 105° |
| 2026-04-25 12:09 | 44.48726 | 15.85455 | 34042 ft | 451 kts | 105° |
| 2026-04-25 12:10 | 44.47139 | 15.93973 | 34040 ft | 451 kts | 105° |
| 2026-04-25 12:10 | 44.45559 | 16.02405 | 34048 ft | 451 kts | 105° |
| 2026-04-25 12:11 | 44.43951 | 16.10914 | 34048 ft | 451 kts | 105° |
| 2026-04-25 12:11 | 44.42341 | 16.19411 | 34050 ft | 451 kts | 105° |
| 2026-04-25 12:12 | 44.41001 | 16.26475 | 34050 ft | 451 kts | 105° |
| 2026-04-25 12:12 | 44.39125 | 16.36326 | 34052 ft | 450 kts | 105° |
| 2026-04-25 12:13 | 44.37508 | 16.44785 | 34056 ft | 450 kts | 105° |
| 2026-04-25 12:13 | 44.35887 | 16.53220 | 34055 ft | 449 kts | 105° |
| 2026-04-25 12:14 | 44.34259 | 16.61651 | 34050 ft | 449 kts | 105° |
| 2026-04-25 12:14 | 44.32629 | 16.70032 | 34055 ft | 448 kts | 105° |
| 2026-04-25 12:15 | 44.30982 | 16.78428 | 34052 ft | 448 kts | 105° |
| 2026-04-25 12:15 | 44.29316 | 16.86831 | 34050 ft | 448 kts | 105° |
| 2026-04-25 12:16 | 44.27587 | 16.95147 | 34054 ft | 448 kts | 106° |
| 2026-04-25 12:16 | 44.25832 | 17.03490 | 34054 ft | 448 kts | 105° |
| 2026-04-25 12:17 | 44.24082 | 17.11849 | 34056 ft | 448 kts | 105° |
| 2026-04-25 12:17 | 44.22352 | 17.20150 | 34055 ft | 448 kts | 105° |
| 2026-04-25 12:18 | 44.20594 | 17.28495 | 34059 ft | 448 kts | 106° |
| 2026-04-25 12:18 | 44.18828 | 17.36842 | 34072 ft | 449 kts | 105° |
| 2026-04-25 12:19 | 44.16168 | 17.49350 | 34073 ft | 449 kts | 105° |
| 2026-04-25 12:20 | 44.14383 | 17.57699 | 34074 ft | 449 kts | 105° |
| 2026-04-25 12:20 | 44.12612 | 17.65980 | 34077 ft | 449 kts | 105° |
| 2026-04-25 12:21 | 44.10825 | 17.74308 | 34079 ft | 449 kts | 105° |
| 2026-04-25 12:21 | 44.09022 | 17.82630 | 34079 ft | 448 kts | 105° |
| 2026-04-25 12:22 | 44.07207 | 17.90952 | 34080 ft | 448 kts | 105° |
| 2026-04-25 12:22 | 44.05408 | 17.99203 | 34075 ft | 448 kts | 105° |
| 2026-04-25 12:23 | 44.03598 | 18.07506 | 34075 ft | 448 kts | 105° |
| 2026-04-25 12:23 | 44.01789 | 18.15748 | 34064 ft | 448 kts | 105° |
| 2026-04-25 12:24 | 43.99968 | 18.24041 | 34058 ft | 448 kts | 105° |
| 2026-04-25 12:24 | 43.98126 | 18.32337 | 34053 ft | 448 kts | 105° |
| 2026-04-25 12:25 | 43.96284 | 18.40615 | 34054 ft | 448 kts | 105° |
| 2026-04-25 12:25 | 43.94449 | 18.48845 | 34055 ft | 448 kts | 105° |
| 2026-04-25 12:26 | 43.92594 | 18.57124 | 34053 ft | 448 kts | 105° |
| 2026-04-25 12:26 | 43.90741 | 18.65406 | 34056 ft | 448 kts | 106° |
| 2026-04-25 12:27 | 43.88889 | 18.73618 | 34066 ft | 448 kts | 105° |
| 2026-04-25 12:27 | 43.87020 | 18.81867 | 34069 ft | 449 kts | 105° |
| 2026-04-25 12:28 | 43.85147 | 18.90125 | 34073 ft | 449 kts | 105° |
| 2026-04-25 12:28 | 43.83264 | 18.98371 | 34068 ft | 449 kts | 105° |
| 2026-04-25 12:29 | 43.81379 | 19.06571 | 34072 ft | 449 kts | 105° |
| 2026-04-25 12:29 | 43.79802 | 19.13438 | 34070 ft | 449 kts | 105° |
| 2026-04-25 12:30 | 43.77902 | 19.21679 | 34067 ft | 449 kts | 105° |
| 2026-04-25 12:30 | 43.76057 | 19.29943 | 34064 ft | 448 kts | 104° |
| 2026-04-25 12:31 | 43.74365 | 19.38210 | 34071 ft | 449 kts | 103° |
| 2026-04-25 12:31 | 43.72683 | 19.46526 | 34077 ft | 449 kts | 103° |
| 2026-04-25 12:32 | 43.70961 | 19.54816 | 34073 ft | 449 kts | 104° |
| 2026-04-25 12:32 | 43.69218 | 19.63045 | 34068 ft | 448 kts | 104° |
| 2026-04-25 12:33 | 43.67452 | 19.71337 | 34068 ft | 448 kts | 104° |
| 2026-04-25 12:33 | 43.65716 | 19.79560 | 34074 ft | 448 kts | 104° |
| 2026-04-25 12:34 | 43.63963 | 19.87840 | 34067 ft | 448 kts | 104° |
| 2026-04-25 12:34 | 43.62199 | 19.96102 | 34065 ft | 448 kts | 104° |
| 2026-04-25 12:35 | 43.60429 | 20.04348 | 34062 ft | 448 kts | 104° |
| 2026-04-25 12:35 | 43.58662 | 20.12535 | 34073 ft | 447 kts | 104° |
| 2026-04-25 12:36 | 43.56872 | 20.20783 | 34066 ft | 447 kts | 104° |
| 2026-04-25 12:36 | 43.55100 | 20.28959 | 34066 ft | 447 kts | 104° |
| 2026-04-25 12:37 | 43.53317 | 20.37178 | 34069 ft | 447 kts | 104° |
| 2026-04-25 12:37 | 43.51524 | 20.45369 | 34077 ft | 446 kts | 104° |
| 2026-04-25 12:38 | 43.49718 | 20.53564 | 34067 ft | 446 kts | 104° |
| 2026-04-25 12:38 | 43.47913 | 20.61732 | 34069 ft | 445 kts | 104° |
| 2026-04-25 12:39 | 43.46107 | 20.69899 | 34066 ft | 445 kts | 104° |
| 2026-04-25 12:39 | 43.44311 | 20.78016 | 34073 ft | 445 kts | 104° |
| 2026-04-25 12:40 | 43.42488 | 20.86185 | 34071 ft | 445 kts | 104° |
| 2026-04-25 12:40 | 43.40666 | 20.94334 | 34067 ft | 445 kts | 104° |
| 2026-04-25 12:41 | 43.38834 | 21.02476 | 34066 ft | 446 kts | 104° |
| 2026-04-25 12:41 | 43.37006 | 21.10574 | 34075 ft | 445 kts | 104° |
| 2026-04-25 12:42 | 43.35166 | 21.18710 | 34071 ft | 445 kts | 104° |
| 2026-04-25 12:42 | 43.33326 | 21.26815 | 34071 ft | 444 kts | 104° |
| 2026-04-25 12:43 | 43.31471 | 21.34926 | 34073 ft | 444 kts | 104° |
| 2026-04-25 12:43 | 43.28699 | 21.47039 | 34076 ft | 444 kts | 104° |
| 2026-04-25 12:44 | 43.26843 | 21.55128 | 34067 ft | 444 kts | 104° |
| 2026-04-25 12:45 | 43.24038 | 21.67218 | 34063 ft | 444 kts | 104° |
| 2026-04-25 12:45 | 43.21224 | 21.79335 | 34061 ft | 444 kts | 104° |
| 2026-04-25 12:46 | 43.19339 | 21.87400 | 34058 ft | 444 kts | 104° |
| 2026-04-25 12:46 | 43.17442 | 21.95469 | 34060 ft | 444 kts | 104° |
| 2026-04-25 12:47 | 43.15546 | 22.03529 | 34073 ft | 444 kts | 104° |
| 2026-04-25 12:47 | 43.13659 | 22.11529 | 34074 ft | 444 kts | 104° |
| 2026-04-25 12:48 | 43.11737 | 22.19622 | 34073 ft | 444 kts | 104° |
| 2026-04-25 12:48 | 43.09839 | 22.27613 | 34074 ft | 444 kts | 104° |
| 2026-04-25 12:49 | 43.07932 | 22.35643 | 34069 ft | 444 kts | 104° |
| 2026-04-25 12:49 | 43.06012 | 22.43676 | 34068 ft | 444 kts | 104° |
| 2026-04-25 12:50 | 43.04088 | 22.51654 | 34066 ft | 444 kts | 104° |
| 2026-04-25 12:50 | 43.02144 | 22.59689 | 34060 ft | 444 kts | 104° |
| 2026-04-25 12:51 | 43.00196 | 22.67715 | 34063 ft | 444 kts | 104° |
| 2026-04-25 12:51 | 42.98253 | 22.75718 | 34059 ft | 444 kts | 104° |
| 2026-04-25 12:52 | 42.96781 | 22.83785 | 34059 ft | 438 kts | 95° |
| 2026-04-25 12:52 | 42.95785 | 22.92011 | 34057 ft | 438 kts | 95° |
| 2026-04-25 12:53 | 42.94775 | 23.00226 | 34039 ft | 438 kts | 96° |
| 2026-04-25 12:53 | 42.93763 | 23.08379 | 34049 ft | 438 kts | 96° |
| 2026-04-25 12:54 | 42.92741 | 23.16581 | 34051 ft | 438 kts | 96° |
| 2026-04-25 12:54 | 42.91716 | 23.24785 | 34047 ft | 438 kts | 96° |
| 2026-04-25 12:55 | 42.90860 | 23.31592 | 34043 ft | 438 kts | 96° |
| 2026-04-25 12:55 | 42.89651 | 23.41114 | 34055 ft | 438 kts | 96° |
| 2026-04-25 12:56 | 42.88611 | 23.49289 | 34038 ft | 437 kts | 96° |
| 2026-04-25 12:56 | 42.87568 | 23.57471 | 34041 ft | 438 kts | 96° |
| 2026-04-25 12:57 | 42.86518 | 23.65656 | 34041 ft | 438 kts | 96° |
| 2026-04-25 12:57 | 42.85465 | 23.73792 | 34051 ft | 438 kts | 96° |
| 2026-04-25 12:58 | 42.84396 | 23.81973 | 34044 ft | 438 kts | 96° |
| 2026-04-25 12:58 | 42.83318 | 23.90169 | 34042 ft | 438 kts | 96° |
| 2026-04-25 12:59 | 42.82235 | 23.98358 | 34040 ft | 438 kts | 96° |
| 2026-04-25 12:59 | 42.81155 | 24.06480 | 34055 ft | 438 kts | 96° |
| 2026-04-25 13:00 | 42.80423 | 24.11941 | 34056 ft | 438 kts | 96° |
| 2026-04-25 13:00 | 42.78968 | 24.22799 | 34053 ft | 438 kts | 96° |
| 2026-04-25 13:01 | 42.77870 | 24.30969 | 34052 ft | 438 kts | 96° |
| 2026-04-25 13:01 | 42.76768 | 24.39084 | 34048 ft | 437 kts | 96° |
| 2026-04-25 13:02 | 42.75659 | 24.47222 | 34053 ft | 437 kts | 96° |
| 2026-04-25 13:02 | 42.74541 | 24.55362 | 34046 ft | 436 kts | 96° |
| 2026-04-25 13:03 | 42.73417 | 24.63484 | 34042 ft | 436 kts | 96° |
| 2026-04-25 13:03 | 42.72296 | 24.71536 | 34041 ft | 436 kts | 96° |
| 2026-04-25 13:04 | 42.71168 | 24.79666 | 34036 ft | 436 kts | 96° |
| 2026-04-25 13:04 | 42.70036 | 24.87775 | 34034 ft | 436 kts | 96° |
| 2026-04-25 13:05 | 42.68900 | 24.95843 | 34027 ft | 436 kts | 96° |
| 2026-04-25 13:05 | 42.67746 | 25.03978 | 34025 ft | 436 kts | 97° |
| 2026-04-25 13:06 | 42.66586 | 25.12082 | 34032 ft | 437 kts | 97° |
| 2026-04-25 13:06 | 42.65435 | 25.20135 | 34008 ft | 436 kts | 97° |
| 2026-04-25 13:07 | 42.64273 | 25.28225 | 34003 ft | 436 kts | 97° |
| 2026-04-25 13:07 | 42.63110 | 25.36276 | 34002 ft | 436 kts | 97° |
| 2026-04-25 13:08 | 42.61929 | 25.44364 | 34013 ft | 436 kts | 97° |
| 2026-04-25 13:08 | 42.60746 | 25.52440 | 34005 ft | 436 kts | 97° |
| 2026-04-25 13:09 | 42.59558 | 25.60519 | 34011 ft | 437 kts | 97° |
| 2026-04-25 13:09 | 42.58356 | 25.68616 | 34009 ft | 437 kts | 97° |
| 2026-04-25 13:10 | 42.57150 | 25.76702 | 34018 ft | 437 kts | 97° |
| 2026-04-25 13:10 | 42.55957 | 25.84744 | 34026 ft | 437 kts | 97° |
| 2026-04-25 13:11 | 42.54748 | 25.92822 | 34029 ft | 437 kts | 97° |
| 2026-04-25 13:11 | 42.53528 | 26.00895 | 34021 ft | 437 kts | 97° |
| 2026-04-25 13:12 | 42.52302 | 26.08964 | 34019 ft | 437 kts | 97° |
| 2026-04-25 13:12 | 42.51489 | 26.14307 | 34028 ft | 437 kts | 97° |
| 2026-04-25 13:13 | 42.49850 | 26.25054 | 34002 ft | 437 kts | 97° |
| 2026-04-25 13:13 | 42.48814 | 26.31758 | 33995 ft | 436 kts | 98° |
| 2026-04-25 13:14 | 42.47568 | 26.39821 | 33994 ft | 436 kts | 97° |
| 2026-04-25 13:14 | 42.46326 | 26.47877 | 33998 ft | 436 kts | 98° |
| 2026-04-25 13:15 | 42.45081 | 26.55862 | 34006 ft | 436 kts | 98° |
| 2026-04-25 13:15 | 42.43811 | 26.63914 | 34008 ft | 436 kts | 98° |
| 2026-04-25 13:16 | 42.42549 | 26.71904 | 34014 ft | 436 kts | 98° |
| 2026-04-25 13:16 | 42.41276 | 26.79931 | 34029 ft | 436 kts | 98° |
| 2026-04-25 13:17 | 42.39999 | 26.87967 | 34027 ft | 436 kts | 98° |
| 2026-04-25 13:17 | 42.38721 | 26.95999 | 34019 ft | 436 kts | 98° |
| 2026-04-25 13:18 | 42.37433 | 27.04015 | 34018 ft | 436 kts | 99° |
| 2026-04-25 13:18 | 42.36141 | 27.11982 | 34016 ft | 436 kts | 99° |
| 2026-04-25 13:19 | 42.34843 | 27.19990 | 34026 ft | 436 kts | 99° |
| 2026-04-25 13:19 | 42.33755 | 27.26665 | 34023 ft | 436 kts | 99° |
| 2026-04-25 13:20 | 42.32235 | 27.35974 | 34017 ft | 435 kts | 99° |
| 2026-04-25 13:20 | 42.30919 | 27.43983 | 34016 ft | 436 kts | 99° |
| 2026-04-25 13:21 | 42.29598 | 27.51981 | 34013 ft | 435 kts | 99° |
| 2026-04-25 13:21 | 42.28275 | 27.59966 | 34026 ft | 435 kts | 100° |
| 2026-04-25 13:22 | 42.26946 | 27.67938 | 34026 ft | 435 kts | 100° |
| 2026-04-25 13:23 | 42.24947 | 27.79831 | 34042 ft | 435 kts | 100° |
| 2026-04-25 13:23 | 42.23605 | 27.87801 | 34041 ft | 435 kts | 100° |
| 2026-04-25 13:24 | 42.22257 | 27.95778 | 34038 ft | 435 kts | 100° |
| 2026-04-25 13:24 | 42.20911 | 28.03698 | 34035 ft | 435 kts | 100° |
| 2026-04-25 13:25 | 42.19550 | 28.11650 | 34031 ft | 435 kts | 100° |
| 2026-04-25 13:25 | 42.18181 | 28.19624 | 34031 ft | 435 kts | 101° |
| 2026-04-25 13:26 | 42.16819 | 28.27533 | 34030 ft | 435 kts | 101° |
| 2026-04-25 13:26 | 42.15442 | 28.35482 | 34031 ft | 436 kts | 101° |
| 2026-04-25 13:27 | 42.14056 | 28.43448 | 34030 ft | 436 kts | 101° |
| 2026-04-25 13:27 | 42.12663 | 28.51402 | 34033 ft | 436 kts | 101° |
| 2026-04-25 13:28 | 42.11267 | 28.59362 | 34033 ft | 436 kts | 101° |
| 2026-04-25 13:28 | 42.09874 | 28.67281 | 34035 ft | 436 kts | 101° |
| 2026-04-25 13:29 | 42.08357 | 28.75189 | 34034 ft | 437 kts | 108° |
| 2026-04-25 13:29 | 42.05494 | 28.82433 | 34039 ft | 440 kts | 121° |
| 2026-04-25 13:30 | 42.00594 | 28.92841 | 34027 ft | 440 kts | 121° |
| 2026-04-25 13:31 | 41.95684 | 29.03313 | 34026 ft | 440 kts | 121° |
| 2026-04-25 13:31 | 41.92400 | 29.10265 | 34035 ft | 440 kts | 121° |
| 2026-04-25 13:32 | 41.89131 | 29.17163 | 34027 ft | 440 kts | 121° |
| 2026-04-25 13:32 | 41.85844 | 29.24101 | 34036 ft | 439 kts | 121° |
| 2026-04-25 13:33 | 41.82557 | 29.31014 | 34043 ft | 439 kts | 121° |
| 2026-04-25 13:33 | 41.79271 | 29.37921 | 34044 ft | 438 kts | 121° |
| 2026-04-25 13:34 | 41.76005 | 29.44772 | 34042 ft | 438 kts | 121° |
| 2026-04-25 13:34 | 41.72709 | 29.51649 | 34041 ft | 438 kts | 121° |
| 2026-04-25 13:35 | 41.69410 | 29.58513 | 34037 ft | 438 kts | 122° |
| 2026-04-25 13:35 | 41.66109 | 29.65380 | 34033 ft | 438 kts | 122° |
| 2026-04-25 13:36 | 41.62822 | 29.72194 | 34024 ft | 438 kts | 122° |
| 2026-04-25 13:36 | 41.59513 | 29.79055 | 34023 ft | 438 kts | 122° |
| 2026-04-25 13:37 | 41.56225 | 29.85851 | 34023 ft | 438 kts | 122° |
| 2026-04-25 13:37 | 41.52910 | 29.92680 | 34024 ft | 438 kts | 122° |
| 2026-04-25 13:38 | 41.49569 | 29.99541 | 34025 ft | 439 kts | 122° |
| 2026-04-25 13:38 | 41.46261 | 30.06324 | 34030 ft | 439 kts | 122° |
| 2026-04-25 13:39 | 41.42926 | 30.13159 | 34029 ft | 439 kts | 122° |
| 2026-04-25 13:39 | 41.39586 | 30.19993 | 34029 ft | 439 kts | 122° |
| 2026-04-25 13:40 | 41.36262 | 30.26772 | 34032 ft | 439 kts | 123° |
| 2026-04-25 13:40 | 41.32913 | 30.33581 | 34037 ft | 439 kts | 123° |
| 2026-04-25 13:41 | 41.29564 | 30.40368 | 34034 ft | 438 kts | 123° |
| 2026-04-25 13:41 | 41.26215 | 30.47157 | 34035 ft | 438 kts | 123° |
| 2026-04-25 13:42 | 41.22861 | 30.53930 | 34038 ft | 438 kts | 123° |
| 2026-04-25 13:42 | 41.19524 | 30.60657 | 34031 ft | 438 kts | 123° |
| 2026-04-25 13:43 | 41.16158 | 30.67420 | 34039 ft | 438 kts | 123° |
| 2026-04-25 13:43 | 41.12812 | 30.74127 | 34029 ft | 437 kts | 123° |
| 2026-04-25 13:44 | 41.09451 | 30.80857 | 34029 ft | 437 kts | 123° |
| 2026-04-25 13:44 | 41.06085 | 30.87592 | 34024 ft | 438 kts | 123° |
| 2026-04-25 13:45 | 41.02710 | 30.94322 | 34027 ft | 438 kts | 123° |
| 2026-04-25 13:45 | 40.99335 | 31.01042 | 34024 ft | 438 kts | 123° |
| 2026-04-25 13:46 | 40.96001 | 31.07751 | 34032 ft | 438 kts | 123° |
| 2026-04-25 13:46 | 40.92666 | 31.14512 | 34034 ft | 438 kts | 122° |
| 2026-04-25 13:47 | 40.89934 | 31.20038 | 34041 ft | 437 kts | 123° |
| 2026-04-25 13:47 | 40.86606 | 31.26755 | 34047 ft | 437 kts | 123° |
| 2026-04-25 13:48 | 40.83262 | 31.33459 | 34046 ft | 436 kts | 123° |
| 2026-04-25 13:48 | 40.79943 | 31.40089 | 34047 ft | 435 kts | 123° |
| 2026-04-25 13:49 | 40.76603 | 31.46765 | 34045 ft | 435 kts | 123° |
| 2026-04-25 13:49 | 40.73265 | 31.53434 | 34045 ft | 434 kts | 123° |
| 2026-04-25 13:50 | 40.69947 | 31.60037 | 34047 ft | 433 kts | 123° |
| 2026-04-25 13:50 | 40.66608 | 31.66666 | 34047 ft | 433 kts | 123° |
| 2026-04-25 13:51 | 40.63271 | 31.73284 | 34043 ft | 432 kts | 123° |
| 2026-04-25 13:51 | 40.59961 | 31.79834 | 34048 ft | 431 kts | 123° |
| 2026-04-25 13:52 | 40.57175 | 31.86797 | 34049 ft | 430 kts | 110° |
| 2026-04-25 13:52 | 40.55030 | 31.94135 | 34043 ft | 429 kts | 110° |
| 2026-04-25 13:53 | 40.52874 | 32.01458 | 34042 ft | 429 kts | 111° |
| 2026-04-25 13:53 | 40.50705 | 32.08761 | 34041 ft | 428 kts | 111° |
| 2026-04-25 13:54 | 40.48533 | 32.16049 | 34040 ft | 428 kts | 111° |
| 2026-04-25 13:54 | 40.46410 | 32.23368 | 34039 ft | 428 kts | 109° |
| 2026-04-25 13:55 | 40.44547 | 32.30786 | 34045 ft | 428 kts | 107° |
| 2026-04-25 13:55 | 40.42764 | 32.38194 | 34041 ft | 428 kts | 108° |
| 2026-04-25 13:56 | 40.40916 | 32.45639 | 34039 ft | 429 kts | 108° |
| 2026-04-25 13:56 | 40.39336 | 32.51820 | 34040 ft | 429 kts | 109° |
| 2026-04-25 13:57 | 40.37419 | 32.59248 | 34042 ft | 429 kts | 109° |
| 2026-04-25 13:57 | 40.35524 | 32.66634 | 34043 ft | 429 kts | 109° |
| 2026-04-25 13:58 | 40.33623 | 32.74051 | 34043 ft | 429 kts | 109° |
| 2026-04-25 13:58 | 40.31715 | 32.81469 | 34046 ft | 429 kts | 109° |
| 2026-04-25 13:59 | 40.29797 | 32.88892 | 34046 ft | 429 kts | 109° |
| 2026-04-25 13:59 | 40.27873 | 32.96310 | 34043 ft | 431 kts | 109° |
| 2026-04-25 14:00 | 40.26267 | 33.02494 | 34041 ft | 431 kts | 108° |
| 2026-04-25 14:00 | 40.25477 | 33.07581 | 34040 ft | 432 kts | 94° |
| 2026-04-25 14:00 | 40.25499 | 33.11523 | 34040 ft | 432 kts | 84° |
| 2026-04-25 14:01 | 40.27106 | 33.19079 | 34044 ft | 433 kts | 66° |
| 2026-04-25 14:01 | 40.29572 | 33.26296 | 34040 ft | 434 kts | 66° |
| 2026-04-25 14:02 | 40.32006 | 33.33486 | 34042 ft | 435 kts | 66° |
| 2026-04-25 14:02 | 40.34459 | 33.40756 | 34046 ft | 435 kts | 66° |
| 2026-04-25 14:03 | 40.36906 | 33.48024 | 34047 ft | 436 kts | 66° |
| 2026-04-25 14:03 | 40.39358 | 33.55323 | 34054 ft | 436 kts | 66° |
| 2026-04-25 14:04 | 40.41785 | 33.62565 | 34055 ft | 435 kts | 66° |
| 2026-04-25 14:04 | 40.44211 | 33.69856 | 34056 ft | 435 kts | 68° |
| 2026-04-25 14:05 | 40.46142 | 33.77388 | 34047 ft | 434 kts | 72° |
| 2026-04-25 14:05 | 40.48020 | 33.84931 | 34051 ft | 434 kts | 72° |
| 2026-04-25 14:06 | 40.49898 | 33.92478 | 34049 ft | 435 kts | 72° |
| 2026-04-25 14:06 | 40.51938 | 33.99964 | 34042 ft | 435 kts | 68° |
| 2026-04-25 14:07 | 40.54261 | 34.07273 | 34043 ft | 436 kts | 67° |
| 2026-04-25 14:07 | 40.56629 | 34.14635 | 34042 ft | 436 kts | 68° |
| 2026-04-25 14:08 | 40.58914 | 34.22010 | 34041 ft | 436 kts | 68° |
| 2026-04-25 14:08 | 40.61170 | 34.29423 | 34044 ft | 436 kts | 68° |
| 2026-04-25 14:09 | 40.63424 | 34.36840 | 34044 ft | 436 kts | 68° |
| 2026-04-25 14:09 | 40.65683 | 34.44273 | 34046 ft | 436 kts | 68° |
| 2026-04-25 14:10 | 40.67932 | 34.51658 | 34054 ft | 436 kts | 68° |
| 2026-04-25 14:10 | 40.70185 | 34.59105 | 34054 ft | 437 kts | 68° |
| 2026-04-25 14:11 | 40.72428 | 34.66544 | 34058 ft | 436 kts | 68° |
| 2026-04-25 14:11 | 40.74656 | 34.73948 | 34055 ft | 436 kts | 68° |
| 2026-04-25 14:12 | 40.76878 | 34.81418 | 34054 ft | 436 kts | 69° |
| 2026-04-25 14:12 | 40.79064 | 34.88888 | 34048 ft | 436 kts | 69° |
| 2026-04-25 14:13 | 40.81247 | 34.96368 | 34046 ft | 436 kts | 69° |
| 2026-04-25 14:13 | 40.83422 | 35.03790 | 34044 ft | 436 kts | 69° |
| 2026-04-25 14:14 | 40.85614 | 35.11269 | 34039 ft | 436 kts | 69° |
| 2026-04-25 14:14 | 40.87793 | 35.18762 | 34029 ft | 436 kts | 69° |
| 2026-04-25 14:15 | 40.89955 | 35.26244 | 34024 ft | 437 kts | 69° |
| 2026-04-25 14:15 | 40.92125 | 35.33759 | 34015 ft | 437 kts | 69° |
| 2026-04-25 14:16 | 40.94283 | 35.41286 | 34012 ft | 437 kts | 69° |
| 2026-04-25 14:16 | 40.96452 | 35.48818 | 34012 ft | 437 kts | 69° |
| 2026-04-25 14:17 | 40.98606 | 35.56301 | 34016 ft | 438 kts | 69° |
| 2026-04-25 14:17 | 41.00762 | 35.63839 | 34039 ft | 438 kts | 69° |
| 2026-04-25 14:18 | 41.02925 | 35.71401 | 34040 ft | 438 kts | 69° |
| 2026-04-25 14:18 | 41.05137 | 35.78936 | 34040 ft | 438 kts | 68° |
| 2026-04-25 14:19 | 41.07360 | 35.86428 | 34048 ft | 439 kts | 69° |
| 2026-04-25 14:19 | 41.09585 | 35.93986 | 34049 ft | 439 kts | 69° |
| 2026-04-25 14:20 | 41.11730 | 36.01516 | 34058 ft | 439 kts | 70° |
| 2026-04-25 14:20 | 41.13842 | 36.09134 | 34056 ft | 440 kts | 70° |
| 2026-04-25 14:21 | 41.15960 | 36.16774 | 34063 ft | 440 kts | 70° |
| 2026-04-25 14:21 | 41.18094 | 36.24406 | 34068 ft | 441 kts | 70° |
| 2026-04-25 14:22 | 41.20231 | 36.32049 | 34068 ft | 441 kts | 70° |
| 2026-04-25 14:22 | 41.22339 | 36.39659 | 34074 ft | 442 kts | 70° |
| 2026-04-25 14:23 | 41.24461 | 36.47344 | 34082 ft | 442 kts | 70° |
| 2026-04-25 14:23 | 41.26075 | 36.55209 | 34079 ft | 441 kts | 84° |
| 2026-04-25 14:24 | 41.25936 | 36.63333 | 34064 ft | 440 kts | 97° |
| 2026-04-25 14:24 | 41.25327 | 36.71387 | 34066 ft | 440 kts | 97° |
| 2026-04-25 14:25 | 41.24925 | 36.76821 | 34070 ft | 441 kts | 96° |
| 2026-04-25 14:25 | 41.24126 | 36.87592 | 34070 ft | 442 kts | 97° |
| 2026-04-25 14:26 | 41.23509 | 36.95736 | 34074 ft | 442 kts | 97° |
| 2026-04-25 14:26 | 41.22882 | 37.03892 | 34078 ft | 443 kts | 97° |
| 2026-04-25 14:27 | 41.22246 | 37.12037 | 34082 ft | 443 kts | 97° |
| 2026-04-25 14:27 | 41.21615 | 37.20133 | 34084 ft | 443 kts | 97° |
| 2026-04-25 14:28 | 41.20999 | 37.28278 | 34087 ft | 442 kts | 96° |
| 2026-04-25 14:28 | 41.20415 | 37.36378 | 34087 ft | 442 kts | 96° |
| 2026-04-25 14:29 | 41.19820 | 37.44519 | 34078 ft | 442 kts | 97° |
| 2026-04-25 14:29 | 41.19206 | 37.52670 | 34075 ft | 442 kts | 97° |
| 2026-04-25 14:30 | 41.18650 | 37.60769 | 34079 ft | 443 kts | 95° |
| 2026-04-25 14:30 | 41.17811 | 37.73002 | 34083 ft | 443 kts | 98° |
| 2026-04-25 14:31 | 41.17088 | 37.81143 | 34087 ft | 444 kts | 98° |
| 2026-04-25 14:31 | 41.16354 | 37.89286 | 34097 ft | 444 kts | 98° |
| 2026-04-25 14:32 | 41.15680 | 37.97404 | 34106 ft | 444 kts | 97° |
| 2026-04-25 14:32 | 41.15055 | 38.05575 | 34118 ft | 444 kts | 97° |
| 2026-04-25 14:33 | 41.14419 | 38.13698 | 34113 ft | 444 kts | 97° |
| 2026-04-25 14:33 | 41.13747 | 38.21848 | 34118 ft | 444 kts | 98° |
| 2026-04-25 14:34 | 41.13069 | 38.30016 | 34111 ft | 445 kts | 98° |
| 2026-04-25 14:34 | 41.12400 | 38.38142 | 34108 ft | 445 kts | 97° |
| 2026-04-25 14:35 | 41.11723 | 38.46327 | 34094 ft | 445 kts | 98° |
| 2026-04-25 14:35 | 41.11039 | 38.54442 | 34086 ft | 445 kts | 98° |
| 2026-04-25 14:36 | 41.10341 | 38.62625 | 34083 ft | 446 kts | 98° |
| 2026-04-25 14:36 | 41.09632 | 38.70814 | 34086 ft | 446 kts | 98° |
| 2026-04-25 14:37 | 41.08907 | 38.78997 | 34082 ft | 447 kts | 98° |
| 2026-04-25 14:37 | 41.08159 | 38.87143 | 34090 ft | 447 kts | 98° |
| 2026-04-25 14:38 | 41.07413 | 38.95292 | 34079 ft | 447 kts | 98° |
| 2026-04-25 14:38 | 41.06662 | 39.03498 | 34085 ft | 448 kts | 98° |
| 2026-04-25 14:39 | 41.05900 | 39.11719 | 34087 ft | 448 kts | 98° |
| 2026-04-25 14:39 | 41.05150 | 39.19874 | 34106 ft | 449 kts | 98° |
| 2026-04-25 14:40 | 41.04392 | 39.28099 | 34106 ft | 449 kts | 98° |
| 2026-04-25 14:40 | 41.03636 | 39.36285 | 34117 ft | 449 kts | 98° |
| 2026-04-25 14:41 | 41.03001 | 39.43118 | 34137 ft | 448 kts | 98° |
| 2026-04-25 14:41 | 41.02228 | 39.51318 | 34140 ft | 448 kts | 99° |
| 2026-04-25 14:42 | 41.01581 | 39.58128 | 34149 ft | 448 kts | 98° |
| 2026-04-25 14:42 | 41.00671 | 39.67680 | 34142 ft | 449 kts | 99° |
| 2026-04-25 14:43 | 40.99883 | 39.75896 | 34140 ft | 449 kts | 97° |
| 2026-04-25 14:43 | 41.00216 | 39.84158 | 34144 ft | 452 kts | 79° |
| 2026-04-25 14:44 | 41.01462 | 39.92321 | 34144 ft | 452 kts | 79° |
| 2026-04-25 14:44 | 41.02674 | 40.00456 | 34139 ft | 453 kts | 79° |
| 2026-04-25 14:45 | 41.03885 | 40.08663 | 34138 ft | 453 kts | 79° |
| 2026-04-25 14:45 | 41.05094 | 40.16866 | 34123 ft | 453 kts | 79° |
| 2026-04-25 14:46 | 41.06297 | 40.25026 | 34117 ft | 453 kts | 79° |
| 2026-04-25 14:46 | 41.07505 | 40.33232 | 34117 ft | 453 kts | 79° |
| 2026-04-25 14:47 | 41.08505 | 40.40072 | 34123 ft | 453 kts | 79° |
| 2026-04-25 14:47 | 41.09880 | 40.49608 | 34131 ft | 453 kts | 79° |
| 2026-04-25 14:48 | 41.11059 | 40.57831 | 34138 ft | 453 kts | 79° |
| 2026-04-25 14:48 | 41.12234 | 40.66048 | 34146 ft | 453 kts | 79° |
| 2026-04-25 14:49 | 41.13409 | 40.74272 | 34143 ft | 454 kts | 79° |
| 2026-04-25 14:49 | 41.14583 | 40.82519 | 34147 ft | 454 kts | 79° |
| 2026-04-25 14:50 | 41.15740 | 40.90707 | 34148 ft | 454 kts | 80° |
| 2026-04-25 14:50 | 41.16903 | 40.98972 | 34150 ft | 455 kts | 80° |
| 2026-04-25 14:51 | 41.18058 | 41.07234 | 34151 ft | 455 kts | 80° |
| 2026-04-25 14:51 | 41.19204 | 41.15509 | 34149 ft | 455 kts | 80° |
| 2026-04-25 14:52 | 41.20339 | 41.23779 | 34153 ft | 455 kts | 80° |
| 2026-04-25 14:52 | 41.21285 | 41.30659 | 34144 ft | 455 kts | 80° |
| 2026-04-25 14:53 | 41.22605 | 41.40286 | 34139 ft | 455 kts | 80° |
| 2026-04-25 14:53 | 41.23729 | 41.48576 | 34145 ft | 455 kts | 80° |
| 2026-04-25 14:54 | 41.24845 | 41.56865 | 34163 ft | 456 kts | 80° |
| 2026-04-25 14:54 | 41.25949 | 41.65110 | 34149 ft | 456 kts | 80° |
| 2026-04-25 14:55 | 41.27064 | 41.73427 | 34151 ft | 456 kts | 80° |
| 2026-04-25 14:55 | 41.28164 | 41.81705 | 34151 ft | 457 kts | 81° |
| 2026-04-25 14:56 | 41.29260 | 41.90046 | 34149 ft | 457 kts | 80° |
| 2026-04-25 14:56 | 41.30354 | 41.98384 | 34161 ft | 457 kts | 81° |
| 2026-04-25 14:57 | 41.31439 | 42.06719 | 34159 ft | 456 kts | 81° |
| 2026-04-25 14:57 | 41.32506 | 42.15013 | 34167 ft | 457 kts | 81° |
| 2026-04-25 14:58 | 41.33566 | 42.23349 | 34169 ft | 457 kts | 81° |
| 2026-04-25 14:58 | 41.34628 | 42.31706 | 34171 ft | 457 kts | 81° |
| 2026-04-25 14:59 | 41.35680 | 42.40070 | 34179 ft | 457 kts | 81° |
| 2026-04-25 14:59 | 41.36718 | 42.48377 | 34170 ft | 458 kts | 81° |
| 2026-04-25 15:00 | 41.37762 | 42.56753 | 34163 ft | 459 kts | 81° |
| 2026-04-25 15:00 | 41.38806 | 42.65148 | 34161 ft | 459 kts | 81° |
| 2026-04-25 15:01 | 41.39844 | 42.73580 | 34167 ft | 460 kts | 81° |
| 2026-04-25 15:01 | 41.40877 | 42.81986 | 34161 ft | 460 kts | 81° |
| 2026-04-25 15:02 | 41.41906 | 42.90443 | 34178 ft | 471 kts | 81° |
| 2026-04-25 15:02 | 41.42951 | 42.99112 | 34175 ft | 474 kts | 81° |
| 2026-04-25 15:03 | 41.43991 | 43.07814 | 34173 ft | 475 kts | 81° |
| 2026-04-25 15:03 | 41.45027 | 43.16472 | 34184 ft | 476 kts | 81° |
| 2026-04-25 15:04 | 41.46063 | 43.25184 | 34184 ft | 475 kts | 81° |
| 2026-04-25 15:04 | 41.47083 | 43.33905 | 34190 ft | 475 kts | 81° |
| 2026-04-25 15:05 | 41.48098 | 43.42641 | 34188 ft | 475 kts | 81° |
| 2026-04-25 15:06 | 41.49610 | 43.55665 | 34194 ft | 475 kts | 81° |
| 2026-04-25 15:06 | 41.50618 | 43.64401 | 34195 ft | 475 kts | 82° |
| 2026-04-25 15:07 | 41.51606 | 43.73054 | 34096 ft | 471 kts | 81° |
| 2026-04-25 15:07 | 41.52093 | 43.77330 | 33603 ft | 464 kts | 81° |
| 2026-04-25 15:07 | 41.52579 | 43.81601 | 32415 ft | 466 kts | 81° |
| 2026-04-25 15:07 | 41.53062 | 43.85865 | 31426 ft | 462 kts | 82° |
| 2026-04-25 15:08 | 41.53535 | 43.90087 | 30531 ft | 456 kts | 82° |
| 2026-04-25 15:08 | 41.53997 | 43.94250 | 29568 ft | 450 kts | 81° |
| 2026-04-25 15:08 | 41.54446 | 43.98309 | 28613 ft | 444 kts | 81° |
| 2026-04-25 15:08 | 41.54898 | 44.02369 | 27667 ft | 439 kts | 81° |
| 2026-04-25 15:09 | 41.55345 | 44.06378 | 26747 ft | 434 kts | 81° |
| 2026-04-25 15:09 | 41.55787 | 44.10339 | 25856 ft | 428 kts | 81° |
| 2026-04-25 15:09 | 41.56648 | 44.18144 | 23818 ft | 427 kts | 81° |
| 2026-04-25 15:10 | 41.57020 | 44.22124 | 22236 ft | 436 kts | 88° |
| 2026-04-25 15:10 | 41.56783 | 44.26175 | 21026 ft | 435 kts | 101° |
| 2026-04-25 15:10 | 41.55749 | 44.34093 | 18974 ft | 428 kts | 101° |
| 2026-04-25 15:11 | 41.55247 | 44.37949 | 18006 ft | 424 kts | 101° |
| 2026-04-25 15:11 | 41.54743 | 44.41794 | 17022 ft | 418 kts | 100° |
| 2026-04-25 15:11 | 41.54245 | 44.45585 | 16096 ft | 411 kts | 100° |
| 2026-04-25 15:12 | 41.53272 | 44.52992 | 14346 ft | 399 kts | 100° |
| 2026-04-25 15:12 | 41.52800 | 44.56620 | 13442 ft | 393 kts | 100° |
| 2026-04-25 15:12 | 41.52332 | 44.60185 | 12505 ft | 387 kts | 101° |
| 2026-04-25 15:12 | 41.52175 | 44.61375 | 12260 ft | 385 kts | 101° |
| 2026-04-25 15:13 | 41.51398 | 44.67208 | 11548 ft | 383 kts | 101° |
| 2026-04-25 15:13 | 41.50472 | 44.74143 | 10613 ft | 370 kts | 101° |
| 2026-04-25 15:13 | 41.50037 | 44.77417 | 10383 ft | 346 kts | 102° |
| 2026-04-25 15:14 | 41.49620 | 44.80508 | 10068 ft | 328 kts | 102° |
| 2026-04-25 15:14 | 41.49221 | 44.83445 | 10030 ft | 318 kts | 102° |
| 2026-04-25 15:14 | 41.48828 | 44.86314 | 10030 ft | 317 kts | 102° |
| 2026-04-25 15:14 | 41.48432 | 44.89217 | 10038 ft | 317 kts | 102° |
| 2026-04-25 15:15 | 41.48037 | 44.92115 | 9580 ft | 317 kts | 102° |
| 2026-04-25 15:15 | 41.47641 | 44.95030 | 8679 ft | 320 kts | 101° |
| 2026-04-25 15:15 | 41.47242 | 44.97965 | 7827 ft | 321 kts | 101° |
| 2026-04-25 15:15 | 41.46843 | 45.00887 | 7162 ft | 314 kts | 101° |
| 2026-04-25 15:16 | 41.46464 | 45.03653 | 6889 ft | 296 kts | 101° |
| 2026-04-25 15:16 | 41.46100 | 45.06293 | 6336 ft | 291 kts | 101° |
| 2026-04-25 15:16 | 41.44904 | 45.11270 | 5210 ft | 275 kts | 130° |
| 2026-04-25 15:17 | 41.42084 | 45.13901 | 4951 ft | 233 kts | 169° |
| 2026-04-25 15:17 | 41.40501 | 45.14134 | 4821 ft | 227 kts | 188° |
| 2026-04-25 15:17 | 41.38968 | 45.13702 | 4686 ft | 225 kts | 199° |
| 2026-04-25 15:18 | 41.37606 | 45.12673 | 4565 ft | 227 kts | 217° |
| 2026-04-25 15:18 | 41.36832 | 45.08851 | 4530 ft | 231 kts | 287° |
| 2026-04-25 15:18 | 41.37484 | 45.06881 | 4530 ft | 234 kts | 301° |
| 2026-04-25 15:19 | 41.38454 | 45.05181 | 4532 ft | 234 kts | 316° |
| 2026-04-25 15:19 | 41.38856 | 45.04685 | 4529 ft | 233 kts | 322° |
| 2026-04-25 15:19 | 41.41259 | 45.03182 | 4534 ft | 230 kts | 354° |
| 2026-04-25 15:19 | 41.42844 | 45.03182 | 4533 ft | 228 kts | 13° |
| 2026-04-25 15:20 | 41.44329 | 45.03858 | 4537 ft | 226 kts | 31° |
| 2026-04-25 15:20 | 41.45588 | 45.05115 | 4532 ft | 228 kts | 40° |
| 2026-04-25 15:20 | 41.46719 | 45.06623 | 4529 ft | 231 kts | 43° |
| 2026-04-25 15:20 | 41.47823 | 45.08195 | 4524 ft | 233 kts | 43° |
| 2026-04-25 15:21 | 41.48926 | 45.09786 | 4530 ft | 233 kts | 45° |
| 2026-04-25 15:21 | 41.50013 | 45.11349 | 4524 ft | 232 kts | 42° |
| 2026-04-25 15:21 | 41.51299 | 45.12602 | 4526 ft | 219 kts | 11° |
| 2026-04-25 15:21 | 41.52711 | 45.12608 | 4479 ft | 199 kts | 338° |
| 2026-04-25 15:22 | 41.53813 | 45.11628 | 4355 ft | 188 kts | 315° |
| 2026-04-25 15:22 | 41.54760 | 45.10434 | 4223 ft | 187 kts | 316° |
| 2026-04-25 15:22 | 41.55701 | 45.09248 | 4124 ft | 186 kts | 316° |
| 2026-04-25 15:22 | 41.56646 | 45.08056 | 4015 ft | 187 kts | 316° |
| 2026-04-25 15:23 | 41.57593 | 45.06858 | 3810 ft | 187 kts | 316° |
| 2026-04-25 15:23 | 41.58551 | 45.05651 | 3565 ft | 190 kts | 316° |
| 2026-04-25 15:23 | 41.59515 | 45.04437 | 3299 ft | 191 kts | 317° |
| 2026-04-25 15:23 | 41.60485 | 45.03216 | 3015 ft | 192 kts | 316° |
| 2026-04-25 15:24 | 41.61451 | 45.01999 | 2756 ft | 188 kts | 317° |
| 2026-04-25 15:24 | 41.62065 | 45.01225 | 2568 ft | 178 kts | 317° |
| 2026-04-25 15:24 | 41.62928 | 45.00137 | 2344 ft | 161 kts | 317° |
| 2026-04-25 15:24 | 41.63459 | 44.99467 | 2196 ft | 149 kts | 317° |
| 2026-04-25 15:25 | 41.64413 | 44.98265 | 1950 ft | 138 kts | 317° |
| 2026-04-25 15:25 | 41.65103 | 44.97394 | 1769 ft | 136 kts | 316° |
| 2026-04-25 15:25 | 41.65792 | 44.96526 | 1575 ft | 136 kts | 315° |
| 2026-04-25 15:25 | 41.66442 | 44.95706 | 1526 ft | 103 kts | 316° |
| 2026-04-25 15:26 | 41.66761 | 44.95304 | 1524 ft | 40 kts | 316° |
| 2026-04-25 15:26 | 41.66911 | 44.95210 | 1524 ft | 19 kts | 35° |
| 2026-04-25 15:26 | 41.66973 | 44.95292 | 1523 ft | 5 kts | 44° |
| 2026-04-25 15:26 | 41.66977 | 44.95298 | 1524 ft | 0 kts | 44° |
| 2026-04-25 15:27 | 41.67013 | 44.95344 | 1526 ft | 16 kts | 44° |
| 2026-04-25 15:27 | 41.67089 | 44.95442 | 1522 ft | 13 kts | 43° |
| 2026-04-25 15:27 | 41.67238 | 44.95626 | 1523 ft | 5 kts | 51° |
| 2026-04-25 15:28 | 41.67233 | 44.95665 | 1524 ft | 5 kts | 115° |
| 2026-04-25 15:28 | 41.67164 | 44.95762 | 1521 ft | 15 kts | 133° |
| 2026-04-25 15:28 | 41.67097 | 44.95858 | 1522 ft | 13 kts | 133° |
| 2026-04-25 15:28 | 41.67051 | 44.95951 | 1520 ft | 11 kts | 124° |
| 2026-04-25 15:29 | 41.67024 | 44.96041 | 1525 ft | 11 kts | 75° |
| 2026-04-25 15:29 | 41.67039 | 44.96069 | 1523 ft | 1 kts | 14° |
| 2026-04-25 15:29 | 41.67061 | 44.96095 | 1522 ft | 0 kts | 44° |